Terminal Aerodrome Forecast
Issued by NWS

Home | Current Version | Previous Version | Text Only | Print | Product List | Glossary On
Versions: 1 2 3 4 5 6 7 8 9 10 11 12 13 14 15 16 17 18 19 20 21 22
000
FTUS45 KREV 261700
TAFTVL
TAF
KTVL 261727Z 2618/2718 VRB03KT P6SM SCT180
     FM261900 19009KT P6SM SCT180
     FM270100 VRB03KT P6SM BKN180=

USA.gov is the U.S. government's official web portal to all federal, state and local government web resources and services.